INFORMACIÓN METAR y TAF
METAR FOR GCHI
ADDS - METARS form results

(0408 UTC 22 July 2019)
Data provider http://aviationweather.gov/metar/data/
 
METAR text: GCHI 220400Z AUTO 01017KT 9999 BKN021 22/17 Q1019
Conditions at: GCHI (HIERRO AIRPORT , ES) observed 0400 UTC 22 July 2019
Temperature: 22.0°C (72°F)
Dewpoint: 17.0°C (63°F) [RH = 73%]
Pressure (altimeter): 30.09 inches Hg (1019.0 mb)
Winds: from the N (10 degrees) at 20 MPH (17 knots; 8.7 m/s)
Visibility: 6 or more miles (10+ km)
Ceiling: 2100 feet AGL
Clouds: broken clouds at 2100 feet AGL
Weather: no significant weather observed at this time

METAR text: GCHI 220330Z AUTO 36017KT 340V050 9999 OVC020 22/18 Q1020
Conditions at: GCHI (HIERRO AIRPORT , ES) observed 0330 UTC 22 July 2019
Temperature: 22.0°C (72°F)
Dewpoint: 18.0°C (64°F) [RH = 78%]
Pressure (altimeter): 30.12 inches Hg (1020.0 mb)
Winds: from the N (360 degrees) at 20 MPH (17 knots; 8.7 m/s)
Visibility: 6 or more miles (10+ km)
Ceiling: 2000 feet AGL
Clouds: overcast cloud deck at 2000 feet AGL
Weather: no significant weather observed at this time

Forecast for: GCHI (HIERRO AIRPORT , ES)
Text: TAF GCHI 220200Z 2203/2303 35015KT 9999 BKN020 TX26/2214Z TN21/2205Z
Forecast period: 0300 UTC 22 July 2019 to 0300 UTC 23 July 2019
Forecast type: FROM: standard forecast or significant change
Winds: from the N (350 degrees) at 17 MPH (15 knots; 7.7 m/s)
Visibility: 6 or more miles 10+ km)
Ceiling: 2000 feet AGL
Clouds: broken clouds at 2000 feet AGL
Weather: no significant weather forecast for this period

 MAPA DE AEROPUERTO

 INFORMACIÓN DE PISTA
Pista 16 Longitud 4101 ft Ancho 98 ft
Elevación 71 ft Umbral desplazado 0 ft Rumbo de pista 153
Pista 34 Longitud 4101 ft Ancho 98 ft
Elevación 103 ft Umbral desplazado 0 ft Rumbo de pista 333

 FRECUANCIAS DEL AEROPUERTO
Tipo A/D Nombre CANARIAS A Frecuencia 126.1 MHZ
Tipo GND Nombre GND Frecuencia 121.6 MHZ
Tipo TWR Nombre TWR Frecuencia 118.1 MHZ

 RADIO AYUDAS DEL AEROPUERTO
Tipo NDB Nombre Hierro Frecuencia 376 KHZ
Tipo DME Nombre Hierro Frecuencia 113200 KHZ



Powered by Virtual Airlines Manager [v2.6.2]